createdAt,value
2022-09-05T00:01:44.003Z,43.70
2022-09-05T00:04:24.935Z,43.87
2022-09-05T00:07:10.628Z,43.62
2022-09-05T00:10:20.690Z,43.80
2022-09-05T00:12:47.654Z,43.78
2022-09-05T00:15:23.407Z,43.72
2022-09-05T00:19:06.582Z,43.56
2022-09-05T00:24:26.953Z,43.59
2022-09-05T00:24:30.062Z,43.76
2022-09-05T00:26:50.140Z,43.89
2022-09-05T00:29:33.211Z,43.48
2022-09-05T00:32:31.507Z,43.60
2022-09-05T00:35:12.015Z,43.71
2022-09-05T00:37:39.626Z,43.36
2022-09-05T00:40:18.342Z,43.63
2022-09-05T00:42:45.546Z,43.30
2022-09-05T00:45:14.480Z,43.32
2022-09-05T00:47:50.031Z,43.17
2022-09-05T00:50:22.127Z,43.52
2022-09-05T00:53:06.490Z,43.43
2022-09-05T00:55:36.957Z,43.12
2022-09-05T00:58:21.823Z,43.47
2022-09-05T01:00:58.824Z,43.25
2022-09-05T01:03:33.940Z,43.10
2022-09-05T01:06:29.562Z,43.34
2022-09-05T01:09:08.168Z,43.26
2022-09-05T01:11:38.204Z,43.31
2022-09-05T01:14:23.113Z,43.27
2022-09-05T01:16:58.665Z,43.35
2022-09-05T01:19:30.782Z,43.13
2022-09-05T01:21:59.814Z,43.16
2022-09-05T01:24:32.853Z,43.08
2022-09-05T01:27:26.695Z,43.19
2022-09-05T01:30:10.130Z,43.14
2022-09-05T01:32:51.424Z,43.05
2022-09-05T01:35:25.882Z,43.19
2022-09-05T01:38:06.294Z,42.82
2022-09-05T01:40:38.804Z,43.08
2022-09-05T01:43:10.445Z,43.04
2022-09-05T01:45:55.632Z,42.95
2022-09-05T01:48:37.238Z,43.24
2022-09-05T01:51:37.746Z,43.04
2022-09-05T01:54:33.534Z,43.14
2022-09-05T01:57:18.526Z,42.95
2022-09-05T01:59:58.230Z,42.96
2022-09-05T02:02:33.840Z,43.04
2022-09-05T02:05:47.695Z,43.23
2022-09-05T02:08:08.166Z,43.26
2022-09-05T02:10:40.036Z,43.17
2022-09-05T02:13:18.797Z,43.45
2022-09-05T02:15:59.983Z,43.29
2022-09-05T02:18:28.453Z,43.41
2022-09-05T02:20:56.977Z,43.62
2022-09-05T02:23:41.251Z,43.26
2022-09-05T02:26:11.350Z,43.11
2022-09-05T02:28:43.784Z,43.18
2022-09-05T02:31:21.520Z,43.33
2022-09-05T02:33:52.630Z,43.55
2022-09-05T02:36:36.525Z,43.41
2022-09-05T02:40:29.825Z,43.67
2022-09-05T02:45:06.486Z,43.53
2022-09-05T02:45:14.816Z,43.85
2022-09-05T02:47:40.929Z,43.44
2022-09-05T02:54:17.897Z,43.60
2022-09-05T02:57:41.150Z,43.68
2022-09-05T02:57:43.490Z,43.90
2022-09-05T02:59:35.917Z,44.04
2022-09-05T03:02:26.380Z,43.92
2022-09-05T03:05:05.478Z,44.00
2022-09-05T03:07:45.238Z,43.87
2022-09-05T03:10:47.123Z,44.28
2022-09-05T03:13:22.531Z,44.04
2022-09-05T03:16:04.701Z,44.25
2022-09-05T03:18:50.176Z,44.15
2022-09-05T03:21:35.087Z,44.29
2022-09-05T03:24:04.129Z,44.33
2022-09-05T03:26:50.129Z,44.45
2022-09-05T03:29:42.920Z,44.32
2022-09-05T03:32:27.706Z,44.24
2022-09-05T03:34:56.850Z,44.55
2022-09-05T03:37:41.941Z,44.36
2022-09-05T03:40:20.649Z,44.57
2022-09-05T03:42:48.494Z,44.29
2022-09-05T03:45:36.668Z,44.50
2022-09-05T03:48:28.377Z,44.68
2022-09-05T03:57:07.800Z,44.70
2022-09-05T03:57:10.414Z,44.65
2022-09-05T03:57:18.761Z,44.36
2022-09-05T03:59:59.741Z,44.47
2022-09-05T04:07:08.776Z,44.43
2022-09-05T04:08:13.433Z,44.30
2022-09-05T04:08:33.937Z,44.53
2022-09-05T04:11:04.497Z,44.35
2022-09-05T04:13:31.795Z,44.76
2022-09-05T04:16:06.453Z,45.32
2022-09-05T04:19:01.978Z,45.34
2022-09-05T04:21:29.350Z,45.03
2022-09-05T04:23:58.430Z,45.28
2022-09-05T04:26:28.452Z,45.24
2022-09-05T04:29:15.061Z,45.14
2022-09-05T04:32:10.754Z,45.03
2022-09-05T04:35:01.716Z,44.78
2022-09-05T04:37:48.755Z,44.85
2022-09-05T04:40:33.067Z,44.89
2022-09-05T04:43:01.154Z,44.57
2022-09-05T04:45:27.587Z,44.50
2022-09-05T04:47:54.755Z,44.78
2022-09-05T04:50:23.694Z,44.89
2022-09-05T04:52:53.433Z,45.03
2022-09-05T04:55:19.791Z,44.93
2022-09-05T04:57:46.071Z,44.77
2022-09-05T05:05:58.314Z,44.80
2022-09-05T05:06:20.299Z,44.99
2022-09-05T05:06:45.040Z,45.10
2022-09-05T05:09:08.484Z,44.95
2022-09-05T05:17:54.981Z,45.43
2022-09-05T05:18:03.223Z,45.39
2022-09-05T05:18:13.403Z,45.44
2022-09-05T05:20:42.578Z,45.63
2022-09-05T05:23:10.419Z,45.70
2022-09-05T05:25:47.938Z,45.63
2022-09-05T05:28:24.842Z,45.81
2022-09-05T05:30:51.686Z,45.95
2022-09-05T05:33:28.389Z,45.94
2022-09-05T05:35:55.966Z,46.08
2022-09-05T05:38:27.629Z,46.17
2022-09-05T05:40:55.222Z,45.95
2022-09-05T05:43:22.592Z,46.30
2022-09-05T05:45:55.506Z,46.31
2022-09-05T05:48:22.008Z,47.06
2022-09-05T05:50:51.656Z,47.98
2022-09-05T05:53:43.091Z,47.67
2022-09-05T05:56:16.506Z,47.58
2022-09-05T05:58:58.746Z,48.04
2022-09-05T06:01:37.743Z,48.04
2022-09-05T06:04:23.517Z,47.20
2022-09-05T06:06:58.978Z,46.83
2022-09-05T06:14:51.679Z,46.88
2022-09-05T06:14:57.993Z,47.10
2022-09-05T06:15:39.801Z,47.46
2022-09-05T06:18:25.212Z,47.23
2022-09-05T06:22:06.538Z,47.12
2022-09-05T06:23:52.031Z,46.79
2022-09-05T06:26:21.367Z,46.97
2022-09-05T06:28:55.582Z,46.04
2022-09-05T06:31:30.134Z,45.79
2022-09-05T06:34:08.495Z,46.11
2022-09-05T06:37:14.004Z,46.07
2022-09-05T06:40:01.750Z,45.98
2022-09-05T06:42:43.480Z,46.22
2022-09-05T06:45:27.914Z,45.93
2022-09-05T06:47:57.136Z,45.82
2022-09-05T06:50:27.898Z,46.26
2022-09-05T06:52:54.550Z,45.77
2022-09-05T06:55:39.405Z,46.46
2022-09-05T06:58:11.258Z,46.04
2022-09-05T07:00:44.692Z,46.34
2022-09-05T07:03:26.706Z,45.88
2022-09-05T07:06:20.252Z,46.07
2022-09-05T07:08:51.167Z,45.87
2022-09-05T07:11:25.675Z,46.31
2022-09-05T07:14:00.566Z,46.20
2022-09-05T07:16:37.659Z,46.30
2022-09-05T07:19:14.219Z,45.87
2022-09-05T07:21:43.141Z,45.85
2022-09-05T07:24:12.006Z,46.22
2022-09-05T07:26:54.082Z,46.46
2022-09-05T07:29:39.789Z,46.45
2022-09-05T07:32:20.150Z,46.88
2022-09-05T07:34:48.823Z,46.51
2022-09-05T07:37:22.051Z,46.63
2022-09-05T07:39:52.521Z,47.22
2022-09-05T07:42:26.112Z,46.62
2022-09-05T07:44:56.744Z,46.61
2022-09-05T07:47:30.230Z,46.42
2022-09-05T07:50:06.429Z,46.96
2022-09-05T07:56:54.488Z,46.96
2022-09-05T07:57:06.012Z,46.82
2022-09-05T07:58:19.673Z,47.08
2022-09-05T08:00:47.648Z,46.83
2022-09-05T08:03:14.186Z,47.02
2022-09-05T08:05:43.945Z,46.94
2022-09-05T08:08:11.654Z,46.79
2022-09-05T08:11:24.430Z,46.84
2022-09-05T08:13:27.752Z,46.59
2022-09-05T08:16:09.767Z,46.83
2022-09-05T08:18:46.019Z,46.84
2022-09-05T08:21:27.120Z,46.91
2022-09-05T08:24:16.126Z,46.83
2022-09-05T08:26:47.541Z,46.98
2022-09-05T08:29:26.892Z,47.04
2022-09-05T08:31:55.285Z,47.63
2022-09-05T08:34:44.947Z,47.36
2022-09-05T08:37:13.912Z,47.08
2022-09-05T08:39:47.762Z,47.18
2022-09-05T08:42:18.694Z,47.31
2022-09-05T08:46:41.708Z,47.60
2022-09-05T08:47:50.212Z,47.40
2022-09-05T08:50:27.053Z,47.69
2022-09-05T08:52:59.403Z,47.69
2022-09-05T08:55:44.583Z,47.99
2022-09-05T08:58:19.029Z,47.86
2022-09-05T09:00:54.993Z,47.61
2022-09-05T09:03:29.110Z,47.95
2022-09-05T09:06:12.945Z,47.91
2022-09-05T09:08:48.342Z,47.80
2022-09-05T09:11:22.207Z,47.58
2022-09-05T09:13:52.755Z,48.18
2022-09-05T09:16:39.405Z,48.15
2022-09-05T09:19:28.958Z,48.02
2022-09-05T09:21:55.738Z,48.09
2022-09-05T09:24:32.032Z,47.87
2022-09-05T09:27:41.756Z,47.95
2022-09-05T09:30:10.823Z,48.02
2022-09-05T09:32:46.920Z,48.47
2022-09-05T09:35:39.438Z,48.34
2022-09-05T09:38:09.425Z,48.24
2022-09-05T09:40:39.801Z,48.23
2022-09-05T09:43:27.367Z,48.17
2022-09-05T09:46:12.380Z,48.20
2022-09-05T09:48:47.988Z,48.26
2022-09-05T09:51:19.431Z,48.27
2022-09-05T09:54:04.254Z,48.27
2022-09-05T09:56:49.077Z,48.33
2022-09-05T09:59:17.977Z,48.66
2022-09-05T10:02:12.883Z,48.66
2022-09-05T10:10:38.061Z,48.40
2022-09-05T10:10:44.212Z,48.14
2022-09-05T10:11:51.513Z,48.18
2022-09-05T10:14:04.229Z,47.84
2022-09-05T10:16:44.627Z,47.80
2022-09-05T10:19:16.964Z,48.03
2022-09-05T10:21:43.299Z,47.93
2022-09-05T10:24:19.734Z,47.82
2022-09-05T10:26:57.246Z,48.08
2022-09-05T10:29:38.890Z,48.06
2022-09-05T10:35:07.860Z,48.20
2022-09-05T10:35:22.187Z,48.15
2022-09-05T10:38:00.753Z,47.82
2022-09-05T10:40:45.418Z,48.31
2022-09-05T10:43:23.155Z,48.41
2022-09-05T10:45:55.653Z,47.78
2022-09-05T10:48:29.191Z,48.03
2022-09-05T10:51:00.510Z,47.90
2022-09-05T10:53:39.277Z,47.37
2022-09-05T10:56:16.398Z,47.06
2022-09-05T11:01:19.395Z,46.90
2022-09-05T11:02:26.704Z,46.93
2022-09-05T11:04:49.934Z,47.05
2022-09-05T11:07:24.789Z,46.85
2022-09-05T11:10:14.590Z,46.85
2022-09-05T11:12:57.368Z,46.70
2022-09-05T11:15:31.847Z,46.57
2022-09-05T11:18:03.827Z,46.55
2022-09-05T11:20:34.508Z,46.22
2022-09-05T11:23:21.016Z,46.11
2022-09-05T11:25:47.785Z,46.23
2022-09-05T11:28:15.696Z,45.79
2022-09-05T11:30:43.628Z,46.00
2022-09-05T11:37:52.248Z,45.99
2022-09-05T11:39:47.153Z,46.00
2022-09-05T11:39:56.399Z,46.56
2022-09-05T11:41:47.235Z,46.55
2022-09-05T11:44:26.327Z,46.13
2022-09-05T11:47:14.293Z,45.69
2022-09-05T11:49:50.860Z,45.00
2022-09-05T11:52:32.758Z,45.18
2022-09-05T11:55:20.703Z,44.80
2022-09-05T11:58:39.885Z,44.75
2022-09-05T12:01:42.123Z,44.07
2022-09-05T12:04:08.625Z,44.53
2022-09-05T12:06:39.528Z,44.24
2022-09-05T12:09:26.781Z,44.35
2022-09-05T12:12:06.241Z,44.15
2022-09-05T12:15:04.425Z,44.16
2022-09-05T12:17:43.178Z,44.30
2022-09-05T12:20:22.336Z,44.32
2022-09-05T12:23:04.121Z,44.26
2022-09-05T12:27:42.122Z,44.32
2022-09-05T12:29:27.701Z,44.54
2022-09-05T12:32:36.477Z,44.25
2022-09-05T12:36:13.305Z,44.58
2022-09-05T12:40:25.374Z,45.24
2022-09-05T12:41:37.435Z,44.47
2022-09-05T12:44:37.892Z,44.61
2022-09-05T12:45:56.582Z,44.80
2022-09-05T12:48:26.348Z,44.47
2022-09-05T12:51:46.320Z,44.80
2022-09-05T12:54:26.250Z,44.80
2022-09-05T12:59:27.094Z,45.12
2022-09-05T13:02:56.972Z,44.69
2022-09-05T13:03:04.167Z,44.77
2022-09-05T13:05:19.987Z,44.73
2022-09-05T13:07:50.906Z,44.71
2022-09-05T13:13:17.341Z,44.89
2022-09-05T13:14:58.328Z,44.91
2022-09-05T13:16:22.876Z,44.94
2022-09-05T13:18:50.549Z,44.58
2022-09-05T13:21:23.220Z,44.74
2022-09-05T13:24:06.974Z,45.00
2022-09-05T13:26:38.335Z,44.89
2022-09-05T13:29:13.262Z,44.83
2022-09-05T13:37:55.485Z,44.86
2022-09-05T13:38:14.908Z,44.51
2022-09-05T13:38:15.037Z,44.88
2022-09-05T13:40:04.183Z,45.18
2022-09-05T13:42:31.543Z,44.59
2022-09-05T13:44:58.375Z,44.67
2022-09-05T13:47:36.316Z,44.12
2022-09-05T13:50:05.140Z,44.13
2022-09-05T13:52:35.644Z,44.11
2022-09-05T13:55:04.238Z,44.46
2022-09-05T13:57:35.557Z,44.18
2022-09-05T14:00:15.396Z,43.96
2022-09-05T14:03:40.630Z,44.54
2022-09-05T14:06:45.404Z,44.22
2022-09-05T14:09:41.862Z,44.07
2022-09-05T14:12:11.531Z,43.60
2022-09-05T14:17:53.202Z,43.79
2022-09-05T14:20:38.631Z,43.88
2022-09-05T14:23:10.169Z,43.56
2022-09-05T14:25:38.858Z,43.68
2022-09-05T14:28:06.690Z,43.52
2022-09-05T14:31:44.101Z,43.16
2022-09-05T14:37:48.610Z,43.48
2022-09-05T14:37:51.085Z,43.20
2022-09-05T14:39:16.621Z,42.71
2022-09-05T14:42:19.475Z,42.94
2022-09-05T14:45:06.206Z,43.09
2022-09-05T14:47:47.534Z,43.59
2022-09-05T14:50:29.233Z,43.28
2022-09-05T14:55:53.741Z,43.18
2022-09-05T15:02:46.048Z,43.25
2022-09-05T15:02:56.472Z,43.47
2022-09-05T15:04:34.860Z,43.35
2022-09-05T15:07:04.007Z,43.42
2022-09-05T15:12:14.425Z,43.36
2022-09-05T15:12:33.174Z,43.27
2022-09-05T15:15:18.061Z,43.53
2022-09-05T15:17:45.333Z,43.42
2022-09-05T15:20:11.763Z,43.67
2022-09-05T15:22:39.627Z,43.30
2022-09-05T15:25:16.741Z,43.44
2022-09-05T15:27:44.137Z,43.92
2022-09-05T15:30:36.017Z,43.65
2022-09-05T15:33:25.419Z,43.85
2022-09-05T15:35:52.343Z,43.88
2022-09-05T15:38:19.853Z,44.08
2022-09-05T15:40:46.250Z,43.96
2022-09-05T15:43:14.352Z,43.93
2022-09-05T15:45:40.748Z,43.70
2022-09-05T15:48:18.849Z,43.90
2022-09-05T15:50:51.123Z,43.71
2022-09-05T15:53:22.392Z,43.85
2022-09-05T15:55:49.929Z,43.99
2022-09-05T15:58:26.855Z,43.81
2022-09-05T16:00:56.373Z,43.98
2022-09-05T16:05:54.718Z,43.81
2022-09-05T16:10:38.655Z,44.20
2022-09-05T16:10:42.030Z,44.01
2022-09-05T16:12:14.359Z,44.50
2022-09-05T16:14:49.917Z,44.36
2022-09-05T16:23:21.010Z,44.74
2022-09-05T16:23:26.769Z,44.56
2022-09-05T16:23:39.599Z,44.55
2022-09-05T16:26:10.230Z,44.90
2022-09-05T16:28:38.506Z,44.83
2022-09-05T16:31:05.425Z,45.10
2022-09-05T16:33:32.204Z,44.97
2022-09-05T16:36:15.504Z,45.12
2022-09-05T16:38:49.887Z,45.09
2022-09-05T16:41:19.019Z,45.08
2022-09-05T16:43:49.302Z,45.24
2022-09-05T16:46:33.365Z,45.34
2022-09-05T16:49:02.365Z,45.46
2022-09-05T16:51:39.656Z,45.53
2022-09-05T16:54:27.881Z,45.74
2022-09-05T16:56:55.130Z,46.12
2022-09-05T16:59:21.911Z,46.13
2022-09-05T17:02:06.406Z,46.67
2022-09-05T17:05:03.562Z,46.69
2022-09-05T17:07:35.543Z,47.16
2022-09-05T17:10:12.060Z,47.47
2022-09-05T17:12:38.636Z,47.82
2022-09-05T17:15:13.703Z,47.80
2022-09-05T17:18:22.073Z,47.84
2022-09-05T17:20:29.550Z,47.79
2022-09-05T17:28:54.062Z,47.87
2022-09-05T17:29:30.088Z,47.52
2022-09-05T17:29:30.091Z,47.37
2022-09-05T17:32:00.162Z,47.63
2022-09-05T17:34:35.077Z,47.28
2022-09-05T17:37:19.979Z,47.46
2022-09-05T17:39:49.156Z,47.44
2022-09-05T17:42:26.251Z,47.06
2022-09-05T17:45:13.131Z,47.16
2022-09-05T17:47:46.173Z,46.94
2022-09-05T17:50:19.922Z,46.00
2022-09-05T17:53:24.948Z,44.95
2022-09-05T17:55:49.691Z,45.06
2022-09-05T17:58:48.810Z,45.02
2022-09-05T18:01:17.880Z,44.45
2022-09-05T18:03:45.779Z,44.57
2022-09-05T18:06:15.131Z,44.55
2022-09-05T18:08:44.851Z,44.52
2022-09-05T18:11:25.423Z,44.52
2022-09-05T18:13:55.037Z,44.24
2022-09-05T18:16:43.702Z,44.71
2022-09-05T18:22:21.789Z,44.49
2022-09-05T18:24:53.568Z,44.72
2022-09-05T18:27:43.898Z,44.77
2022-09-05T18:30:30.032Z,44.87
2022-09-05T18:33:54.360Z,44.87
2022-09-05T18:35:48.004Z,45.19
2022-09-05T18:38:31.104Z,44.96
2022-09-05T18:41:11.671Z,45.55
2022-09-05T18:43:39.333Z,45.84
2022-09-05T18:46:13.697Z,45.74
2022-09-05T18:50:08.195Z,45.76
2022-09-05T18:51:49.755Z,45.74
2022-09-05T18:54:20.396Z,45.89
2022-09-05T18:57:26.157Z,45.98
2022-09-05T18:59:35.913Z,46.31
2022-09-05T19:02:03.026Z,46.38
2022-09-05T19:04:41.483Z,46.51
2022-09-05T19:07:10.105Z,46.99
2022-09-05T19:09:37.265Z,46.92
2022-09-05T19:12:33.589Z,46.67
2022-09-05T19:14:53.441Z,46.92
2022-09-05T19:17:24.457Z,46.87
2022-09-05T19:20:30.517Z,47.01
2022-09-05T19:23:09.738Z,47.05
2022-09-05T19:25:39.054Z,47.08
2022-09-05T19:36:56.603Z,46.87
2022-09-05T19:37:05.307Z,47.02
2022-09-05T19:37:23.736Z,47.14
2022-09-05T19:37:26.298Z,47.36
2022-09-05T19:45:50.583Z,47.18
2022-09-05T19:47:34.730Z,47.08
2022-09-05T19:47:45.338Z,47.43
2022-09-05T19:48:15.833Z,47.36
2022-09-05T19:50:44.682Z,47.06
2022-09-05T19:53:12.305Z,47.21
2022-09-05T19:55:38.710Z,47.47
2022-09-05T19:58:19.379Z,47.55
2022-09-05T20:01:00.409Z,47.59
2022-09-05T20:03:27.568Z,47.50
2022-09-05T20:05:53.932Z,47.43
2022-09-05T20:08:33.132Z,47.35
2022-09-05T20:11:00.118Z,47.45
2022-09-05T20:13:26.470Z,47.77
2022-09-05T20:15:52.876Z,47.53
2022-09-05T20:18:20.472Z,47.55
2022-09-05T20:20:57.170Z,47.83
2022-09-05T20:23:24.507Z,47.65
2022-09-05T20:25:51.655Z,47.90
2022-09-05T20:28:18.773Z,47.96
2022-09-05T20:30:46.104Z,47.99
2022-09-05T20:33:23.182Z,47.94
2022-09-05T20:42:15.676Z,48.06
2022-09-05T20:43:21.510Z,48.09
2022-09-05T20:43:31.289Z,47.80
2022-09-05T20:44:17.215Z,48.04
2022-09-05T20:51:31.574Z,47.79
2022-09-05T20:54:21.725Z,48.05
2022-09-05T20:54:27.970Z,48.09
2022-09-05T20:55:38.633Z,48.20
2022-09-05T20:58:09.382Z,47.94
2022-09-05T21:00:36.025Z,48.21
2022-09-05T21:03:02.520Z,47.99
2022-09-05T21:05:30.079Z,48.14
2022-09-05T21:08:19.516Z,48.31
2022-09-05T21:10:54.362Z,48.34
2022-09-05T21:13:34.657Z,48.12
2022-09-05T21:16:01.096Z,48.00
2022-09-05T21:18:33.400Z,48.06
2022-09-05T21:21:01.522Z,48.06
2022-09-05T21:23:35.323Z,48.22
2022-09-05T21:26:05.169Z,48.36
2022-09-05T21:28:36.452Z,48.02
2022-09-05T21:31:03.951Z,48.30
2022-09-05T21:33:45.846Z,48.13
2022-09-05T21:36:12.848Z,48.34
2022-09-05T21:38:42.706Z,48.51
2022-09-05T21:41:09.058Z,48.25
2022-09-05T21:47:35.934Z,48.40
2022-09-05T21:47:40.084Z,48.14
2022-09-05T21:49:14.107Z,48.53
2022-09-05T21:51:40.466Z,48.47
2022-09-05T21:59:21.048Z,48.24
2022-09-05T21:59:32.703Z,48.47
2022-09-05T21:59:55.518Z,48.29
2022-09-05T22:02:23.719Z,48.51
2022-09-05T22:04:53.970Z,48.56
2022-09-05T22:07:31.924Z,48.52
2022-09-05T22:09:59.489Z,48.29
2022-09-05T22:12:31.445Z,48.21
2022-09-05T22:14:57.915Z,48.37
2022-09-05T22:17:44.476Z,48.43
2022-09-05T22:20:12.063Z,48.25
2022-09-05T22:22:39.015Z,48.32
2022-09-05T22:25:10.262Z,48.27
2022-09-05T22:27:36.714Z,48.60
2022-09-05T22:30:04.430Z,48.30
2022-09-05T22:32:34.057Z,48.69
2022-09-05T22:35:26.784Z,48.66
2022-09-05T22:37:49.391Z,48.45
2022-09-05T22:40:26.200Z,48.35
2022-09-05T22:42:56.228Z,48.66
2022-09-05T22:45:22.596Z,48.64
2022-09-05T22:47:48.952Z,48.42
2022-09-05T22:50:15.345Z,48.56
2022-09-05T22:52:41.719Z,48.61
2022-09-05T22:55:08.269Z,48.43
2022-09-05T22:57:34.627Z,48.56
2022-09-05T23:00:00.990Z,48.47
2022-09-05T23:02:27.558Z,48.50
2022-09-05T23:04:53.917Z,48.38
2022-09-05T23:07:20.925Z,48.52
2022-09-05T23:09:47.282Z,48.77
2022-09-05T23:12:13.675Z,48.70
2022-09-05T23:14:40.021Z,48.67
2022-09-05T23:17:06.394Z,48.52
2022-09-05T23:19:32.738Z,48.85
2022-09-05T23:21:59.092Z,48.75
2022-09-05T23:24:25.679Z,48.77
2022-09-05T23:26:52.046Z,48.48
2022-09-05T23:29:18.397Z,48.69
2022-09-05T23:31:44.765Z,48.78
2022-09-05T23:34:11.124Z,48.74
2022-09-05T23:36:37.465Z,48.69
2022-09-05T23:39:03.917Z,48.65
2022-09-05T23:41:30.307Z,48.47
2022-09-05T23:43:56.659Z,48.78
2022-09-05T23:46:23.159Z,48.45
2022-09-05T23:48:49.537Z,48.54
2022-09-05T23:51:15.897Z,48.64
2022-09-05T23:53:42.241Z,48.42
2022-09-05T23:56:09.011Z,48.50
2022-09-05T23:58:35.606Z,48.33
